Time;durP1;ratioP1;P1;durP2;ratioP2;P2;SDS_P1;SDS_P2;PMS_P1;PMS_P2;Temp;Humidity;BMP_temperature;BMP_pressure;BME280_temperature;BME280_humidity;BME280_pressure;Samples;Min_cycle;Max_cycle;Signal;HPM_P1;HPM_P2
2021/07/18 00:00:41;;;;;;;;;;;24.20;85.20;;;;;;3565197;40;19934;-69
2021/07/18 00:03:06;;;;;;;;;;;24.10;85.00;;;;;;3558888;40;19940;-67
2021/07/18 00:05:33;;;;;;;;;;;24.10;85.30;;;;;;3560557;40;19930;-68
2021/07/18 00:08:01;;;;;;;;;;;24.10;85.80;;;;;;3570036;40;19968;-69
2021/07/18 00:10:27;;;;;;;;;;;24.00;86.10;;;;;;3568515;40;20287;-68
2021/07/18 00:12:54;;;;;;;;;;;23.90;85.80;;;;;;3567024;40;19933;-68
2021/07/18 00:15:20;;;;;;;;;;;23.90;85.60;;;;;;3561409;40;19933;-68
2021/07/18 00:17:46;;;;;;;;;;;23.90;85.40;;;;;;3567408;40;19964;-69
2021/07/18 00:20:12;;;;;;;;;;;23.90;84.50;;;;;;3567304;40;20294;-69
2021/07/18 00:22:38;;;;;;;;;;;23.90;85.00;;;;;;3568328;40;19937;-69
2021/07/18 00:25:05;;;;;;;;;;;23.90;86.20;;;;;;3565844;40;20245;-68
2021/07/18 00:27:30;;;;;;;;;;;23.90;85.40;;;;;;3567745;40;19937;-69
2021/07/18 00:29:57;;;;;;;;;;;23.90;85.20;;;;;;3564196;40;19941;-69
2021/07/18 00:32:23;;;;;;;;;;;23.90;85.00;;;;;;3553942;40;19937;-68
2021/07/18 00:34:49;;;;;;;;;;;23.90;85.10;;;;;;3562905;40;19937;-69
2021/07/18 00:37:14;;;;;;;;;;;23.90;84.80;;;;;;3570623;40;19929;-69
2021/07/18 00:39:40;;;;;;;;;;;23.90;84.90;;;;;;3566969;40;19935;-69
2021/07/18 00:42:06;;;;;;;;;;;23.90;84.90;;;;;;3567452;40;19930;-68
2021/07/18 00:44:31;;;;;;;;;;;23.90;84.50;;;;;;3558967;40;19941;-69
2021/07/18 00:46:59;;;;;;;;;;;23.90;84.80;;;;;;3570638;40;19940;-69
2021/07/18 00:49:24;;;;;;;;;;;23.90;84.20;;;;;;3564527;40;19949;-69
2021/07/18 00:51:50;;;;;;;;;;;23.90;84.00;;;;;;3568209;40;19929;-69
2021/07/18 00:54:16;;;;;;;;;;;24.00;83.70;;;;;;3568949;40;19956;-69
2021/07/18 00:56:42;;;;;;;;;;;24.00;84.20;;;;;;3568399;40;19965;-69
2021/07/18 00:59:08;;;;;;;;;;;24.00;83.40;;;;;;3566638;40;19929;-69
2021/07/18 01:04:05;;;;;;;;;;;24.00;83.60;;;;;;3574972;40;19944;-65
2021/07/18 01:06:31;;;;;;;;;;;24.00;83.70;;;;;;3579412;40;19929;-64
2021/07/18 01:08:57;;;;;;;;;;;24.00;83.20;;;;;;3577665;40;19928;-65
2021/07/18 01:11:22;;;;;;;;;;;24.00;82.90;;;;;;3580177;40;20018;-65
2021/07/18 01:13:48;;;;;;;;;;;24.10;82.70;;;;;;3578510;40;20316;-65
2021/07/18 01:16:14;;;;;;;;;;;24.20;82.10;;;;;;3580556;40;20281;-64
2021/07/18 01:18:40;;;;;;;;;;;24.20;82.80;;;;;;3580001;40;20193;-65
2021/07/18 01:21:08;;;;;;;;;;;24.10;82.80;;;;;;3579341;40;19928;-65
2021/07/18 01:23:37;;;;;;;;;;;24.10;82.80;;;;;;3580015;40;19935;-65
2021/07/18 01:26:03;;;;;;;;;;;24.00;82.60;;;;;;3571036;40;19935;-65
2021/07/18 01:28:29;;;;;;;;;;;24.10;82.40;;;;;;3575690;40;19929;-64
2021/07/18 01:30:55;;;;;;;;;;;24.20;82.20;;;;;;3577852;40;19929;-64
2021/07/18 01:33:21;;;;;;;;;;;24.20;82.20;;;;;;3568879;40;19968;-64
2021/07/18 01:35:47;;;;;;;;;;;24.10;82.80;;;;;;3577739;40;19944;-64
2021/07/18 01:38:13;;;;;;;;;;;24.10;82.10;;;;;;3578295;40;20014;-64
2021/07/18 01:40:41;;;;;;;;;;;24.10;81.90;;;;;;3567199;40;20193;-65
2021/07/18 01:43:07;;;;;;;;;;;24.20;81.70;;;;;;3578557;40;20018;-64
2021/07/18 01:45:33;;;;;;;;;;;24.20;81.80;;;;;;3570856;40;19928;-64
2021/07/18 01:47:59;;;;;;;;;;;24.20;81.60;;;;;;3570857;40;19928;-64
2021/07/18 01:50:25;;;;;;;;;;;24.20;81.60;;;;;;3579301;40;19929;-64
2021/07/18 01:52:50;;;;;;;;;;;24.20;81.60;;;;;;3576894;40;19928;-64
2021/07/18 01:55:20;;;;;;;;;;;24.10;81.70;;;;;;3578891;40;19935;-64
2021/07/18 01:57:48;;;;;;;;;;;24.10;81.40;;;;;;3579379;40;19929;-65
2021/07/18 02:00:14;;;;;;;;;;;24.10;81.40;;;;;;3579176;40;19939;-64
2021/07/18 02:02:40;;;;;;;;;;;24.10;81.10;;;;;;3575082;40;19929;-64
2021/07/18 02:05:06;;;;;;;;;;;24.10;81.50;;;;;;3570228;40;19941;-65
2021/07/18 02:07:32;;;;;;;;;;;24.20;81.00;;;;;;3560399;40;20011;-68
2021/07/18 02:09:58;;;;;;;;;;;24.20;81.00;;;;;;3569535;40;19937;-68
2021/07/18 02:12:23;;;;;;;;;;;24.20;80.90;;;;;;3569882;40;20297;-67
2021/07/18 02:14:50;;;;;;;;;;;24.20;80.50;;;;;;3567103;40;19936;-68
2021/07/18 02:17:16;;;;;;;;;;;24.30;80.10;;;;;;3567679;40;20282;-68
2021/07/18 02:19:42;;;;;;;;;;;24.30;80.00;;;;;;3560347;40;19936;-67
2021/07/18 02:22:09;;;;;;;;;;;24.30;79.80;;;;;;3559268;40;19938;-67
2021/07/18 02:24:34;;;;;;;;;;;24.40;79.30;;;;;;3568145;40;20024;-67
2021/07/18 02:27:00;;;;;;;;;;;24.50;79.30;;;;;;3560573;40;19929;-67
2021/07/18 02:29:26;;;;;;;;;;;24.50;79.20;;;;;;3567158;40;20218;-67
2021/07/18 02:31:53;;;;;;;;;;;24.50;79.40;;;;;;3567283;40;19941;-68
2021/07/18 02:34:19;;;;;;;;;;;24.50;79.30;;;;;;3570012;40;19933;-64
2021/07/18 02:36:44;;;;;;;;;;;24.50;79.30;;;;;;3560432;40;19936;-64
2021/07/18 02:39:10;;;;;;;;;;;24.40;79.30;;;;;;3560690;40;19935;-64
2021/07/18 02:41:36;;;;;;;;;;;24.40;79.30;;;;;;3569526;40;20283;-64
2021/07/18 02:44:02;;;;;;;;;;;24.40;79.40;;;;;;3566395;40;19945;-64
2021/07/18 02:46:28;;;;;;;;;;;24.30;80.30;;;;;;3569402;40;20290;-65
2021/07/18 02:48:55;;;;;;;;;;;24.20;79.80;;;;;;3567340;40;19936;-64
2021/07/18 02:51:21;;;;;;;;;;;24.20;80.10;;;;;;3569699;40;19937;-63
2021/07/18 02:53:46;;;;;;;;;;;24.20;80.10;;;;;;3560246;40;20185;-64
2021/07/18 02:56:12;;;;;;;;;;;24.10;80.50;;;;;;3560398;40;20379;-66
2021/07/18 02:58:38;;;;;;;;;;;24.00;80.70;;;;;;3568170;40;19929;-66
2021/07/18 03:01:03;;;;;;;;;;;24.00;80.50;;;;;;3560639;40;20201;-63
2021/07/18 03:03:29;;;;;;;;;;;24.00;80.40;;;;;;3568941;40;20213;-63
2021/07/18 03:05:56;;;;;;;;;;;24.00;80.50;;;;;;3567369;40;19929;-63
2021/07/18 03:08:22;;;;;;;;;;;24.00;80.40;;;;;;3566664;40;20015;-63
2021/07/18 03:10:47;;;;;;;;;;;24.00;80.40;;;;;;3569423;40;19976;-64
2021/07/18 03:13:13;;;;;;;;;;;24.00;80.40;;;;;;3570066;40;19936;-65
2021/07/18 03:15:38;;;;;;;;;;;24.00;80.00;;;;;;3561313;40;20016;-66
2021/07/18 03:18:06;;;;;;;;;;;24.10;79.60;;;;;;3569691;40;19987;-66
2021/07/18 03:20:32;;;;;;;;;;;24.10;79.60;;;;;;3560610;40;20299;-63
2021/07/18 03:22:59;;;;;;;;;;;24.10;79.90;;;;;;3569497;40;19933;-63
2021/07/18 03:25:25;;;;;;;;;;;24.10;79.80;;;;;;3569659;40;19965;-65
2021/07/18 03:27:51;;;;;;;;;;;24.10;80.00;;;;;;3566709;40;19934;-65
2021/07/18 03:30:18;;;;;;;;;;;24.00;79.90;;;;;;3560473;40;19936;-65
2021/07/18 03:32:44;;;;;;;;;;;24.00;80.00;;;;;;3566758;40;19959;-65
2021/07/18 03:35:10;;;;;;;;;;;24.00;80.20;;;;;;3569699;40;19929;-63
2021/07/18 03:37:36;;;;;;;;;;;23.90;79.90;;;;;;3566657;40;19934;-65
2021/07/18 03:40:03;;;;;;;;;;;23.90;80.30;;;;;;3569571;40;19937;-66
2021/07/18 03:42:29;;;;;;;;;;;23.90;80.00;;;;;;3569559;40;19973;-65
2021/07/18 03:44:54;;;;;;;;;;;23.90;80.80;;;;;;3568422;40;19929;-66
2021/07/18 03:47:20;;;;;;;;;;;23.90;80.20;;;;;;3569607;40;19929;-65
2021/07/18 03:49:46;;;;;;;;;;;23.80;80.30;;;;;;3569077;40;19929;-64
2021/07/18 03:52:11;;;;;;;;;;;23.90;80.30;;;;;;3569578;40;19972;-66
2021/07/18 03:54:37;;;;;;;;;;;23.80;80.10;;;;;;3568714;40;20179;-66
2021/07/18 03:57:04;;;;;;;;;;;23.90;80.00;;;;;;3567428;40;19929;-66
2021/07/18 03:59:30;;;;;;;;;;;23.90;79.50;;;;;;3569144;40;20311;-66
2021/07/18 04:01:55;;;;;;;;;;;23.90;79.70;;;;;;3565280;40;19933;-66
2021/07/18 04:04:23;;;;;;;;;;;24.00;79.70;;;;;;3567945;40;20314;-66
2021/07/18 04:06:49;;;;;;;;;;;23.90;79.90;;;;;;3567942;40;19933;-66
2021/07/18 04:09:14;;;;;;;;;;;23.90;80.00;;;;;;3568877;40;20018;-65
2021/07/18 04:11:40;;;;;;;;;;;23.90;80.30;;;;;;3559520;40;20024;-66
2021/07/18 04:14:07;;;;;;;;;;;23.80;80.20;;;;;;3566521;40;20176;-66
2021/07/18 04:16:33;;;;;;;;;;;23.80;80.40;;;;;;3559938;40;20278;-66
2021/07/18 04:18:58;;;;;;;;;;;23.90;80.30;;;;;;3559741;40;19933;-66
2021/07/18 04:21:24;;;;;;;;;;;23.80;80.40;;;;;;3565974;40;19944;-66
2021/07/18 04:23:51;;;;;;;;;;;23.80;80.30;;;;;;3559350;40;19934;-65
2021/07/18 04:26:17;;;;;;;;;;;23.70;81.10;;;;;;3559774;40;20018;-65
2021/07/18 04:28:42;;;;;;;;;;;23.70;80.60;;;;;;3569280;40;19972;-66
2021/07/18 04:31:09;;;;;;;;;;;23.70;81.10;;;;;;3568636;40;19977;-66
2021/07/18 04:33:35;;;;;;;;;;;23.70;80.60;;;;;;3569161;40;20039;-66
2021/07/18 04:36:01;;;;;;;;;;;23.70;81.10;;;;;;3569184;40;19941;-65
2021/07/18 04:38:26;;;;;;;;;;;23.70;80.70;;;;;;3569220;40;19934;-64
2021/07/18 04:40:52;;;;;;;;;;;23.70;81.10;;;;;;3569065;40;20316;-65
2021/07/18 04:43:18;;;;;;;;;;;23.60;81.20;;;;;;3568698;40;19953;-65
2021/07/18 04:45:43;;;;;;;;;;;23.60;81.10;;;;;;3551581;40;19934;-65
2021/07/18 04:48:10;;;;;;;;;;;23.60;81.20;;;;;;3568556;40;20356;-65
2021/07/18 04:50:36;;;;;;;;;;;23.60;81.90;;;;;;3569085;40;19977;-65
2021/07/18 04:53:02;;;;;;;;;;;23.60;80.90;;;;;;3568642;40;19933;-64
2021/07/18 04:55:27;;;;;;;;;;;23.60;81.10;;;;;;3569008;40;19941;-64
2021/07/18 04:57:53;;;;;;;;;;;23.50;81.10;;;;;;3566578;40;19933;-65
2021/07/18 05:00:20;;;;;;;;;;;23.60;81.40;;;;;;3568731;40;20282;-65
2021/07/18 05:02:46;;;;;;;;;;;23.50;81.70;;;;;;3568987;40;19929;-65
2021/07/18 05:05:12;;;;;;;;;;;;;;;;;;3558141;40;20317;-65
2021/07/18 05:07:38;;;;;;;;;;;;;;;;;;3558888;40;20175;-65
2021/07/18 05:10:05;;;;;;;;;;;;;;;;;;3568430;40;19960;-68
2021/07/18 05:12:30;;;;;;;;;;;;;;;;;;3559504;40;19929;-65
2021/07/18 05:14:56;;;;;;;;;;;;;;;;;;3569016;40;19936;-65
2021/07/18 05:17:22;;;;;;;;;;;;;;;;;;3566785;40;19929;-65
2021/07/18 05:19:48;;;;;;;;;;;;;;;;;;3568665;40;19929;-65
2021/07/18 05:22:14;;;;;;;;;;;;;;;;;;3569622;40;19941;-65
2021/07/18 05:24:40;;;;;;;;;;;;;;;;;;3570404;40;20288;-65
2021/07/18 05:27:06;;;;;;;;;;;;;;;;;;3570389;40;19929;-65
2021/07/18 05:29:32;;;;;;;;;;;;;;;;;;3570130;40;19929;-63
2021/07/18 05:31:58;;;;;;;;;;;;;;;;;;3570139;40;20270;-65
2021/07/18 05:34:24;;;;;;;;;;;;;;;;;;3569730;40;20277;-63
2021/07/18 05:36:49;;;;;;;;;;;;;;;;;;3570206;40;19930;-65
2021/07/18 05:39:15;;;;;;;;;;;;;;;;;;3560405;40;19941;-65
2021/07/18 05:41:41;;;;;;;;;;;;;;;;;;3558299;40;19929;-65
2021/07/18 05:44:07;;;;;;;;;;;;;;;;;;3570072;40;19929;-65
2021/07/18 05:46:33;;;;;;;;;;;;;;;;;;3569887;40;19929;-66
2021/07/18 05:48:59;;;;;;;;;;;;;;;;;;3564130;40;20023;-65
2021/07/18 05:51:25;;;;;;;;;;;;;;;;;;3567266;40;20178;-65
2021/07/18 05:53:51;;;;;;;;;;;;;;;;;;3569112;40;20015;-65
2021/07/18 05:56:19;;;;;;;;;;;;;;;;;;3569752;40;19989;-66
2021/07/18 05:58:45;;;;;;;;;;;;;;;;;;3569788;40;19929;-65
2021/07/18 06:01:11;;;;;;;;;;;;;;;;;;3569732;40;19933;-65
2021/07/18 06:03:36;;;;;;;;;;;;;;;;;;3568824;40;20805;-65
2021/07/18 06:06:02;;;;;;;;;;;;;;;;;;3568961;40;19937;-65
2021/07/18 06:08:28;;;;;;;;;;;;;;;;;;3560322;40;19929;-65
2021/07/18 06:10:54;;;;;;;;;;;;;;;;;;3560321;40;19929;-65
2021/07/18 06:13:20;;;;;;;;;;;;;;;;;;3560900;40;20189;-65
2021/07/18 06:15:46;;;;;;;;;;;;;;;;;;3569590;40;19936;-66
2021/07/18 06:18:12;;;;;;;;;;;;;;;;;;3567363;40;19929;-65
2021/07/18 06:20:38;;;;;;;;;;;;;;;;;;3569504;40;19929;-65
2021/07/18 06:23:04;;;;;;;;;;;;;;;;;;3569468;40;19941;-67
2021/07/18 06:25:30;;;;;;;;;;;;;;;;;;3568267;40;19929;-65
2021/07/18 06:27:56;;;;;;;;;;;;;;;;;;3569014;40;19930;-66
2021/07/18 06:30:22;;;;;;;;;;;;;;;;;;3569840;40;19970;-65
2021/07/18 06:32:48;;;;;;;;;;;;;;;;;;3569333;40;19936;-65
2021/07/18 06:35:14;;;;;;;;;;;;;;;;;;3569882;40;19933;-65
2021/07/18 06:37:39;;;;;;;;;;;;;;;;;;3569716;40;19956;-65
2021/07/18 06:40:05;;;;;;;;;;;;;;;;;;3560466;40;19929;-65
2021/07/18 06:42:31;;;;;;;;;;;;;;;;;;3569676;40;20288;-65
2021/07/18 06:45:00;;;;;;;;;;;;;;;;;;3569475;40;19930;-66
2021/07/18 06:47:27;;;;;;;;;;;23.50;81.70;;;;;;3569058;40;19929;-65
2021/07/18 06:49:53;;;;;;;;;;;24.70;79.80;;;;;;3569810;40;19933;-65
2021/07/18 06:52:19;;;;;;;;;;;24.80;81.20;;;;;;3559901;40;20308;-65
2021/07/18 06:54:45;;;;;;;;;;;24.90;81.10;;;;;;3560872;40;19933;-65
2021/07/18 06:57:10;;;;;;;;;;;24.90;79.70;;;;;;3560335;40;19939;-66
2021/07/18 06:59:36;;;;;;;;;;;24.90;79.40;;;;;;3560170;40;20295;-67
2021/07/18 07:02:02;;;;;;;;;;;24.90;80.20;;;;;;3569448;40;19944;-64
2021/07/18 07:04:29;;;;;;;;;;;24.90;79.80;;;;;;3568444;40;20042;-63
2021/07/18 07:06:55;;;;;;;;;;;24.90;80.40;;;;;;3558970;40;19945;-70
2021/07/18 07:09:21;;;;;;;;;;;24.90;79.60;;;;;;3569475;40;19934;-67
2021/07/18 07:11:47;;;;;;;;;;;25.00;79.50;;;;;;3568957;40;20317;-67
2021/07/18 07:14:12;;;;;;;;;;;24.90;80.20;;;;;;3569325;40;19942;-68
2021/07/18 07:16:38;;;;;;;;;;;24.90;80.10;;;;;;3568372;40;20179;-67
2021/07/18 07:19:04;;;;;;;;;;;24.90;79.20;;;;;;3568751;40;19940;-67
2021/07/18 07:21:31;;;;;;;;;;;24.90;80.30;;;;;;3569518;40;19933;-68
2021/07/18 07:23:57;;;;;;;;;;;24.90;79.50;;;;;;3568864;40;19933;-68
2021/07/18 07:26:22;;;;;;;;;;;24.90;80.40;;;;;;3559088;40;19999;-67
2021/07/18 07:28:48;;;;;;;;;;;24.90;80.90;;;;;;3560378;40;20003;-67
2021/07/18 07:31:14;;;;;;;;;;;24.90;80.00;;;;;;3567186;40;20290;-67
2021/07/18 07:33:39;;;;;;;;;;;25.00;81.50;;;;;;3569490;40;19944;-67
2021/07/18 07:36:05;;;;;;;;;;;25.20;82.40;;;;;;3569129;40;19941;-67
2021/07/18 07:38:31;;;;;;;;;;;;;;;;;;3562948;40;20307;-67
2021/07/18 07:40:57;;;;;;;;;;;;;;;;;;3569312;40;19969;-68
2021/07/18 07:43:23;;;;;;;;;;;;;;;;;;3569014;40;20352;-67
2021/07/18 07:45:49;;;;;;;;;;;;;;;;;;3568678;40;19953;-68
2021/07/18 07:48:15;;;;;;;;;;;;;;;;;;3568777;40;19956;-67
2021/07/18 07:50:41;;;;;;;;;;;;;;;;;;3568428;40;19929;-67
2021/07/18 07:53:07;;;;;;;;;;;;;;;;;;3568166;40;19929;-67
2021/07/18 07:55:33;;;;;;;;;;;;;;;;;;3568990;40;19933;-68
2021/07/18 07:57:59;;;;;;;;;;;;;;;;;;3568284;40;20011;-68
2021/07/18 08:00:25;;;;;;;;;;;;;;;;;;3567385;40;19929;-68
2021/07/18 08:02:51;;;;;;;;;;;;;;;;;;3564146;40;20040;-69
2021/07/18 08:05:17;;;;;;;;;;;;;;;;;;3564645;40;20745;-68
2021/07/18 08:07:42;;;;;;;;;;;;;;;;;;3563897;40;19936;-69
2021/07/18 08:10:08;;;;;;;;;;;;;;;;;;3564538;40;19929;-70
2021/07/18 08:12:34;;;;;;;;;;;;;;;;;;3564477;40;20202;-70
2021/07/18 08:15:00;;;;;;;;;;;;;;;;;;3556130;40;20847;-70
2021/07/18 08:17:26;;;;;;;;;;;;;;;;;;3565237;40;19934;-70
2021/07/18 08:19:52;;;;;;;;;;;;;;;;;;3560946;40;19936;-69
2021/07/18 08:22:18;;;;;;;;;;;;;;;;;;3564731;40;19956;-70
2021/07/18 08:24:44;;;;;;;;;;;;;;;;;;3564637;40;19933;-70
2021/07/18 08:27:10;;;;;;;;;;;;;;;;;;3563976;40;19929;-70
2021/07/18 08:29:36;;;;;;;;;;;;;;;;;;3564520;40;19936;-70
2021/07/18 08:32:02;;;;;;;;;;;;;;;;;;3560583;40;19929;-70
2021/07/18 08:34:28;;;;;;;;;;;;;;;;;;3562729;40;20293;-69
2021/07/18 08:36:57;;;;;;;;;;;25.40;81.20;;;;;;3563848;40;19929;-67
2021/07/18 08:39:23;;;;;;;;;;;;;;;;;;3564214;40;19937;-67
2021/07/18 08:41:50;;;;;;;;;;;;;;;;;;3563976;40;19939;-67
2021/07/18 08:44:16;;;;;;;;;;;;;;;;;;3564418;40;19940;-67
2021/07/18 08:46:42;;;;;;;;;;;;;;;;;;3557881;40;19945;-68
2021/07/18 08:49:08;;;;;;;;;;;;;;;;;;3563780;40;19933;-68
2021/07/18 08:51:34;;;;;;;;;;;28.70;76.40;;;;;;3561113;40;20282;-68
2021/07/18 08:54:01;;;;;;;;;;;29.50;73.20;;;;;;3557156;40;19999;-68
2021/07/18 08:56:29;;;;;;;;;;;29.60;74.60;;;;;;3564466;40;19944;-68
2021/07/18 08:58:55;;;;;;;;;;;29.70;72.70;;;;;;3565181;40;19941;-68
2021/07/18 09:01:21;;;;;;;;;;;;;;;;;;3557071;40;19973;-68
2021/07/18 09:03:46;;;;;;;;;;;29.80;76.10;;;;;;3565955;40;19933;-69
2021/07/18 09:06:12;;;;;;;;;;;;;;;;;;3564602;40;20198;-68
2021/07/18 09:08:42;;;;;;;;;;;30.00;73.20;;;;;;3565156;40;20039;-68
2021/07/18 09:11:08;;;;;;;;;;;;;;;;;;3564784;40;19937;-68
2021/07/18 09:13:34;;;;;;;;;;;;;;;;;;3564645;40;19939;-69
2021/07/18 09:16:00;;;;;;;;;;;;;;;;;;3565304;40;20214;-69
2021/07/18 09:18:26;;;;;;;;;;;;;;;;;;3565137;40;19949;-69
2021/07/18 09:20:52;;;;;;;;;;;;;;;;;;3565009;40;20007;-68
2021/07/18 09:23:18;;;;;;;;;;;;;;;;;;3565239;40;20290;-69
2021/07/18 09:25:44;;;;;;;;;;;;;;;;;;3564200;40;19933;-69
2021/07/18 09:28:09;;;;;;;;;;;;;;;;;;3565206;40;19941;-69
2021/07/18 09:30:35;;;;;;;;;;;;;;;;;;3565019;40;19944;-68
2021/07/18 09:33:01;;;;;;;;;;;;;;;;;;3565020;40;19965;-69
2021/07/18 09:35:28;;;;;;;;;;;;;;;;;;3564769;40;19941;-68
2021/07/18 09:37:54;;;;;;;;;;;;;;;;;;3565356;40;19936;-69
2021/07/18 09:40:20;;;;;;;;;;;;;;;;;;3565470;40;19929;-68
2021/07/18 09:42:46;;;;;;;;;;;;;;;;;;3566858;40;20307;-68
2021/07/18 09:45:12;;;;;;;;;;;;;;;;;;3564823;40;19937;-69
2021/07/18 09:47:51;;;;;;;;;;;30.40;70.50;;;;;;3565301;40;19933;-70
2021/07/18 09:50:17;;;;;;;;;;;31.60;67.60;;;;;;3555599;40;20015;-69
2021/07/18 09:52:48;;;;;;;;;;;;;;;;;;3555960;40;19940;-69
2021/07/18 09:55:13;;;;;;;;;;;;;;;;;;3565056;40;19937;-69
2021/07/18 09:57:42;;;;;;;;;;;;;;;;;;3564806;40;20018;-69
2021/07/18 10:00:08;;;;;;;;;;;;;;;;;;3565016;40;19940;-69
2021/07/18 10:02:34;;;;;;;;;;;;;;;;;;3564674;40;19945;-69
2021/07/18 10:05:00;;;;;;;;;;;;;;;;;;3565364;40;19929;-69
2021/07/18 10:07:32;;;;;;;;;;;31.60;67.70;;;;;;3564452;40;20219;-69
2021/07/18 10:09:58;;;;;;;;;;;32.30;68.60;;;;;;3565260;40;20326;-70
2021/07/18 10:12:24;;;;;;;;;;;32.40;69.30;;;;;;3564309;40;19940;-69
2021/07/18 10:14:49;;;;;;;;;;;32.50;68.70;;;;;;3555161;40;19949;-70
2021/07/18 10:17:15;;;;;;;;;;;32.60;68.90;;;;;;3555132;40;19944;-69
2021/07/18 10:19:41;;;;;;;;;;;32.60;66.20;;;;;;3565656;40;19945;-69
2021/07/18 10:22:07;;;;;;;;;;;32.60;64.30;;;;;;3565002;40;19941;-69
2021/07/18 10:24:34;;;;;;;;;;;32.50;66.90;;;;;;3555040;40;19941;-69
2021/07/18 10:27:02;;;;;;;;;;;32.50;70.60;;;;;;3564947;40;19933;-70
2021/07/18 10:29:28;;;;;;;;;;;32.50;71.10;;;;;;3565087;40;20295;-70
2021/07/18 10:31:54;;;;;;;;;;;32.50;72.50;;;;;;3564830;40;19987;-69
2021/07/18 10:34:24;;;;;;;;;;;32.40;71.30;;;;;;3565369;40;20026;-70
2021/07/18 10:36:50;;;;;;;;;;;32.40;75.50;;;;;;3555676;40;19965;-69
2021/07/18 10:39:26;;;;;;;;;;;32.40;73.60;;;;;;3555442;40;19933;-69
2021/07/18 10:41:54;;;;;;;;;;;32.40;74.90;;;;;;3564601;40;19941;-69
2021/07/18 10:44:20;;;;;;;;;;;32.60;75.20;;;;;;3563389;40;19942;-68
2021/07/18 10:46:56;;;;;;;;;;;32.70;72.90;;;;;;3555747;40;19933;-69
2021/07/18 10:49:48;;;;;;;;;;;32.90;72.80;;;;;;3564739;40;19948;-68
2021/07/18 10:52:14;;;;;;;;;;;33.00;73.40;;;;;;3524731;40;19990;-70
2021/07/18 10:54:42;;;;;;;;;;;32.80;75.40;;;;;;3527036;40;19970;-69
2021/07/18 10:57:20;;;;;;;;;;;32.90;73.30;;;;;;3564498;40;19940;-69
2021/07/18 10:59:46;;;;;;;;;;;33.00;76.00;;;;;;3564541;40;19945;-70
2021/07/18 11:02:13;;;;;;;;;;;33.00;72.50;;;;;;3557634;40;19944;-69
2021/07/18 11:04:39;;;;;;;;;;;;;;;;;;3564829;40;19977;-69
2021/07/18 11:07:20;;;;;;;;;;;33.10;70.10;;;;;;3565490;40;19930;-69
2021/07/18 11:09:46;;;;;;;;;;;33.40;71.20;;;;;;3563081;40;20299;-69
2021/07/18 11:12:12;;;;;;;;;;;;;;;;;;3555274;40;20198;-68
2021/07/18 11:14:39;;;;;;;;;;;;;;;;;;3563865;40;19939;-68
2021/07/18 11:17:05;;;;;;;;;;;;;;;;;;3564404;40;19938;-68
2021/07/18 11:19:31;;;;;;;;;;;;;;;;;;3563968;40;19941;-68
2021/07/18 11:21:56;;;;;;;;;;;;;;;;;;3566344;40;20009;-69
2021/07/18 11:24:22;;;;;;;;;;;;;;;;;;3565107;40;19984;-69
2021/07/18 11:26:51;;;;;;;;;;;;;;;;;;3565126;40;19930;-70
2021/07/18 11:29:17;;;;;;;;;;;;;;;;;;3564526;40;19933;-69
2021/07/18 11:31:43;;;;;;;;;;;;;;;;;;3565100;40;19929;-69
2021/07/18 11:34:09;;;;;;;;;;;;;;;;;;3565646;40;19929;-70
2021/07/18 11:36:55;;;;;;;;;;;33.60;70.90;;;;;;3564426;40;19941;-70
2021/07/18 11:39:24;;;;;;;0.55;0.35;;;34.20;69.00;;;;;;3565308;40;19954;-70
2021/07/18 11:41:51;;;;;;;1.73;0.60;;;34.20;67.20;;;;;;3561102;40;20387;-69
2021/07/18 11:44:18;;;;;;;0.80;0.40;;;;;;;;;;3560941;40;20705;-69
2021/07/18 11:46:46;;;;;;;1.75;0.30;;;;;;;;;;3561558;40;20501;-69
2021/07/18 11:49:13;;;;;;;0.82;0.32;;;;;;;;;;3560778;40;20379;-69
2021/07/18 11:51:40;;;;;;;1.50;0.30;;;;;;;;;;3561989;40;20792;-68
2021/07/18 11:54:08;;;;;;;0.70;0.30;;;;;;;;;;3562151;40;20383;-69
2021/07/18 11:56:35;;;;;;;1.20;0.30;;;;;;;;;;3562507;40;20664;-68
2021/07/18 11:59:03;;;;;;;0.47;0.40;;;;;;;;;;3562486;40;20644;-69
2021/07/18 12:01:29;;;;;;;0.53;0.30;;;;;;;;;;3562040;40;20699;-68
2021/07/18 12:03:56;;;;;;;1.15;0.40;;;;;;;;;;3561290;40;20401;-69
2021/07/18 12:06:23;;;;;;;1.10;0.40;;;;;;;;;;3550876;40;20789;-69
2021/07/18 12:08:50;;;;;;;0.60;0.30;;;;;;;;;;3560609;40;20395;-68
2021/07/18 12:11:24;;;;;;;1.53;0.40;;;;;;;;;;3561895;40;20449;-69
2021/07/18 12:13:52;;;;;;;1.75;1.00;;;;;;;;;;3560964;40;20370;-68
2021/07/18 12:16:19;;;;;;;0.73;0.40;;;;;;;;;;3553734;40;20495;-69
2021/07/18 12:18:45;;;;;;;0.98;0.30;;;;;;;;;;3561214;40;20782;-68
2021/07/18 12:21:18;;;;;;;0.90;0.30;;;;;;;;;;3561038;40;20390;-68
2021/07/18 12:23:44;;;;;;;0.63;0.40;;;;;;;;;;3561132;40;20401;-68
2021/07/18 12:26:11;;;;;;;0.77;0.40;;;;;;;;;;3560204;40;20387;-69
2021/07/18 12:28:38;;;;;;;0.90;0.30;;;;;;;;;;3561692;40;20405;-69
2021/07/18 12:31:06;;;;;;;0.40;0.30;;;;;;;;;;3561958;40;20413;-68
2021/07/18 12:33:32;;;;;;;0.90;0.30;;;;;;;;;;3561878;40;20495;-69
2021/07/18 12:36:03;;;;;;;1.00;0.40;;;;;;;;;;3559412;40;20410;-68
2021/07/18 12:38:29;;;;;;;0.52;0.30;;;;;;;;;;3562634;40;20782;-68
2021/07/18 12:41:00;;;;;;;0.75;0.30;;;;;;;;;;3562975;40;20434;-68
2021/07/18 12:43:26;;;;;;;0.88;0.30;;;;;;;;;;3563180;40;20735;-67
2021/07/18 12:45:53;;;;;;;0.63;0.32;;;;;;;;;;3561901;40;20465;-68
2021/07/18 12:48:22;;;;;;;0.75;0.30;;;;;;;;;;3562679;40;20493;-69
2021/07/18 12:50:48;;;;;;;0.73;0.30;;;;;;;;;;3555356;40;20412;-68
2021/07/18 12:53:16;;;;;;;0.75;0.30;;;;;;;;;;3562488;40;20409;-69
2021/07/18 12:55:43;;;;;;;0.90;0.25;;;;;;;;;;3562468;40;20399;-68
2021/07/18 12:58:17;;;;;;;1.45;0.30;;;;;;;;;;3563078;40;20401;-69
2021/07/18 13:00:44;;;;;;;0.70;0.30;;;;;;;;;;3556327;40;20465;-69
2021/07/18 13:03:12;;;;;;;1.55;0.30;;;;;;;;;;3561944;40;20401;-69
2021/07/18 13:05:39;;;;;;;0.45;0.30;;;;;;;;;;3562425;40;20411;-69
2021/07/18 13:08:05;;;;;;;0.45;0.30;;;;;;;;;;3561563;40;20743;-69
2021/07/18 13:10:36;;;;;;;0.90;0.30;;;;;;;;;;3556127;40;20905;-69
2021/07/18 13:13:03;;;;;;;0.30;0.30;;;;;;;;;;3561640;40;20386;-69
2021/07/18 13:15:29;;;;;;;0.50;0.30;;;;;;;;;;3555903;40;20659;-69
2021/07/18 13:17:56;;;;;;;0.43;0.30;;;;;;;;;;3552072;40;20463;-69
2021/07/18 13:20:24;;;;;;;0.73;0.30;;;;;;;;;;3562206;40;20414;-69
2021/07/18 13:22:51;;;;;;;1.73;0.30;;;;;;;;;;3561595;40;20418;-69
2021/07/18 13:25:21;;;;;;;0.60;0.30;;;;;;;;;;3561308;40;20400;-69
2021/07/18 13:27:48;;;;;;;1.53;0.23;;;;;;;;;;3560286;40;20394;-69
2021/07/18 13:30:15;;;;;;;0.50;0.30;;;;;;;;;;3552634;40;20403;-69
2021/07/18 13:32:42;;;;;;;0.50;0.30;;;;;;;;;;3561680;40;20414;-69
2021/07/18 13:35:10;;;;;;;0.70;0.30;;;;;;;;;;3554784;40;20456;-68
2021/07/18 13:37:38;;;;;;;1.35;0.40;;;;;;;;;;3562316;40;20398;-68
2021/07/18 13:40:06;;;;;;;0.70;0.30;;;;;;;;;;3562292;40;20658;-66
2021/07/18 13:42:33;;;;;;;0.80;0.30;;;;;;;;;;3562010;40;20435;-66
2021/07/18 13:45:00;;;;;;;0.90;0.55;;;;;;;;;;3561491;40;20405;-66
2021/07/18 13:47:26;;;;;;;0.50;0.20;;;;;;;;;;3561594;40;20751;-66
2021/07/18 13:49:52;;;;;;;0.90;0.30;;;;;;;;;;3562160;40;20776;-66
2021/07/18 13:52:18;;;;;;;0.70;0.30;;;;;;;;;;3561973;40;20427;-66
2021/07/18 13:54:46;;;;;;;0.95;0.20;;;;;;;;;;3562316;40;20386;-67
2021/07/18 13:57:12;;;;;;;1.10;0.30;;;34.40;65.90;;;;;;3561647;40;20656;-67
2021/07/18 13:59:38;;;;;;;0.68;0.20;;;;;;;;;;3552674;40;20403;-66
2021/07/18 14:02:04;;;;;;;1.90;0.30;;;;;;;;;;3561776;40;20422;-67
2021/07/18 14:04:31;;;;;;;0.57;0.22;;;;;;;;;;3561879;40;20420;-66
2021/07/18 14:06:57;;;;;;;0.40;0.20;;;;;;;;;;3562527;40;20397;-66
2021/07/18 14:09:23;;;;;;;0.60;0.30;;;;;;;;;;3561478;40;20407;-67
2021/07/18 14:11:51;;;;;;;0.60;0.38;;;;;;;;;;3561433;40;20640;-66
2021/07/18 14:14:17;;;;;;;0.52;0.30;;;;;;;;;;3563515;40;20389;-66
2021/07/18 14:16:43;;;;;;;1.60;0.32;;;;;;;;;;3566546;40;20471;-66
2021/07/18 14:19:10;;;;;;;0.32;0.30;;;;;;;;;;3565831;40;20389;-66
2021/07/18 14:21:36;;;;;;;0.50;0.30;;;;;;;;;;3566064;40;20413;-67
2021/07/18 14:24:04;;;;;;;1.27;0.40;;;;;;;;;;3566231;40;20376;-66
2021/07/18 14:26:30;;;;;;;0.75;0.30;;;;;;;;;;3565402;40;20409;-66
2021/07/18 14:28:57;;;;;;;1.42;0.38;;;;;;;;;;3565523;40;20427;-66
2021/07/18 14:31:24;;;;;;;3.20;0.40;;;;;;;;;;3556291;40;20443;-66
2021/07/18 14:33:50;;;;;;;0.60;0.30;;;;;;;;;;3563833;40;20390;-66
2021/07/18 14:36:17;;;;;;;1.48;0.30;;;;;;;;;;3565034;40;20377;-67
2021/07/18 14:38:43;;;;;;;0.87;0.50;;;;;;;;;;3565283;40;20405;-66
2021/07/18 14:41:09;;;;;;;0.80;0.30;;;;;;;;;;3563848;40;20437;-69
2021/07/18 14:43:35;;;;;;;1.30;0.30;;;;;;;;;;3556670;40;20404;-69
2021/07/18 14:46:03;;;;;;;1.30;0.40;;;;;;;;;;3556302;40;20393;-69
2021/07/18 14:48:29;;;;;;;1.00;0.40;;;;;;;;;;3565299;40;20390;-70
2021/07/18 14:50:56;;;;;;;0.60;0.40;;;;;;;;;;3557414;40;20437;-69
2021/07/18 14:53:22;;;;;;;0.60;0.45;;;;;;;;;;3564620;40;20366;-69
2021/07/18 14:55:48;;;;;;;0.80;0.40;;;;;;;;;;3565502;40;20381;-69
2021/07/18 14:58:14;;;;;;;1.10;0.30;;;;;;;;;;3565828;40;20542;-70